CheckWX is a tool to help pilots better visualize weather data.  It is not intended as a substitute for an official pre-flight weather briefing.

07:15:21 UTC

MMPR TAF
Licenciado Gustavo Díaz Ordaz International Airport
Puerto Vallarta, Mexico
TAF MMPR 170434Z 1706/1812 00000KT P6SM SCT025 SCT090 BKN250 TX30/1719Z TN25/1712Z FM171800 25012KT P6SM SCT025 BKN090 BKN250 TEMPO 1721/1801 BKN025 FM180700 27004KT P6SM SCT020 SCT080 BKN240

Jun-17@
06:00 UTC

Jun-17 @ 06:00 UTC

Jun-17@
18:00 UTC

Jun-17 @ 18:00 UTC

TAF MMPR 170434Z 1706/1812 00000KT P6SM SCT025 SCT090 BKN250 TX30/1719Z TN25/1712Z
Cloud Levels
  • Scattered at 2,500' AGL
  • Scattered at 9,000' AGL
  • Broken at 25,000' AGL

Jun-17@
18:00 UTC

Jun-17 @ 18:00 UTC

Jun-18@
07:00 UTC

Jun-18 @ 07:00 UTC

FM171800 25012KT P6SM SCT025 BKN090 BKN250

From

From Standard forecast or significant change

Wind
  • 250° at 12 KTS
Cloud Levels
  • Scattered at 2,500' AGL
  • Broken at 9,000' AGL
  • Broken at 25,000' AGL

Jun-17@
21:00 UTC

Jun-17 @ 21:00 UTC

Jun-18@
01:00 UTC

Jun-18 @ 01:00 UTC

TEMPO 1721/1801 BKN025

Temporary

Temporary Changes expected for less than half the time period

Cloud Levels
  • Broken at 2,500' AGL

Jun-18@
07:00 UTC

Jun-18 @ 07:00 UTC

Jun-18@
12:00 UTC

Jun-18 @ 12:00 UTC

FM180700 27004KT P6SM SCT020 SCT080 BKN240

From

From Standard forecast or significant change

Wind
  • 270° at 4 KTS
Cloud Levels
  • Scattered at 2,000' AGL
  • Scattered at 8,000' AGL
  • Broken at 24,000' AGL